Time;durP1;ratioP1;P1;durP2;ratioP2;P2;SDS_P1;SDS_P2;PMS_P1;PMS_P2;Temp;Humidity;BMP_temperature;BMP_pressure;BME280_temperature;BME280_humidity;BME280_pressure;Samples;Min_cycle;Max_cycle;Signal;HPM_P1;HPM_P2
2021/08/27 00:00:50;;;;;;;;;;;17.40;90.60;;;;;;4348261;33;43455;-74
2021/08/27 00:03:17;;;;;;;;;;;17.40;90.60;;;;;;4331911;33;42139;-74
2021/08/27 00:05:50;;;;;;;;;;;17.40;90.50;;;;;;4333223;33;42424;-74
2021/08/27 00:08:17;;;;;;;;;;;17.40;90.50;;;;;;4333398;33;43688;-74
2021/08/27 00:10:44;;;;;;;;;;;17.40;90.50;;;;;;4333255;33;44162;-74
2021/08/27 00:13:16;;;;;;;;;;;17.30;90.50;;;;;;4333310;33;43272;-75
2021/08/27 00:15:43;;;;;;;;;;;17.30;90.40;;;;;;4333353;33;44046;-74
2021/08/27 00:18:13;;;;;;;;;;;17.30;90.40;;;;;;4332921;33;42933;-74
2021/08/27 00:20:45;;;;;;;;;;;17.30;90.30;;;;;;4333374;33;43871;-75
2021/08/27 00:23:15;;;;;;;;;;;17.20;90.30;;;;;;4332253;33;44983;-75
2021/08/27 00:25:42;;;;;;;;;;;17.20;90.30;;;;;;4333156;33;43765;-74
2021/08/27 00:28:14;;;;;;;;;;;17.20;90.30;;;;;;4332797;33;43780;-74
2021/08/27 00:30:42;;;;;;;;;;;17.20;90.30;;;;;;4333113;33;43261;-74
2021/08/27 00:33:09;;;;;;;;;;;17.20;90.20;;;;;;4331800;33;42745;-74
2021/08/27 00:35:36;;;;;;;;;;;17.20;90.20;;;;;;4332565;33;42843;-74
2021/08/27 00:38:03;;;;;;;;;;;17.10;90.20;;;;;;4332390;33;45976;-74
2021/08/27 00:40:30;;;;;;;;;;;17.20;90.20;;;;;;4332557;33;43068;-74
2021/08/27 00:42:57;;;;;;;;;;;17.10;90.20;;;;;;4332645;33;44286;-74
2021/08/27 00:45:24;;;;;;;;;;;17.10;90.20;;;;;;4332659;33;42815;-75
2021/08/27 00:47:51;;;;;;;;;;;17.10;90.20;;;;;;4332549;33;43930;-75
2021/08/27 00:50:19;;;;;;;;;;;17.10;90.20;;;;;;4332785;33;43907;-74
2021/08/27 00:52:51;;;;;;;;;;;17.00;90.10;;;;;;4332782;33;44223;-74
2021/08/27 00:55:19;;;;;;;;;;;17.00;90.10;;;;;;4331258;33;43155;-74
2021/08/27 00:57:46;;;;;;;;;;;17.00;90.10;;;;;;4332392;33;42145;-74
2021/08/27 01:00:14;;;;;;;;;;;17.00;90.00;;;;;;4332238;33;43306;-74
2021/08/27 01:02:41;;;;;;;;;;;16.90;90.00;;;;;;4341596;33;42926;-74
2021/08/27 01:05:10;;;;;;;;;;;16.90;90.10;;;;;;4334232;33;43966;-74
2021/08/27 01:07:47;;;;;;;;;;;16.90;90.10;;;;;;4333981;33;45341;-75
2021/08/27 01:10:17;;;;;;;;;;;16.90;90.00;;;;;;4346068;33;44686;-75
2021/08/27 01:12:53;;;;;;;;;;;16.90;90.00;;;;;;4333590;33;43628;-74
2021/08/27 01:15:24;;;;;;;;;;;16.90;90.00;;;;;;4346855;33;42877;-74
2021/08/27 01:17:58;;;;;;;;;;;16.80;90.00;;;;;;4347249;33;43730;-74
2021/08/27 01:20:28;;;;;;;;;;;16.80;90.00;;;;;;4347343;33;43832;-74
2021/08/27 01:22:55;;;;;;;;;;;16.80;90.00;;;;;;4346670;33;43038;-74
2021/08/27 01:25:26;;;;;;;;;;;16.80;90.00;;;;;;4347266;33;43193;-74
2021/08/27 01:27:54;;;;;;;;;;;16.80;90.00;;;;;;4347065;33;42169;-75
2021/08/27 01:30:24;;;;;;;;;;;16.70;90.00;;;;;;4347062;33;43669;-75
2021/08/27 01:32:51;;;;;;;;;;;16.70;90.00;;;;;;4345481;33;44937;-74
2021/08/27 01:35:19;;;;;;;;;;;16.70;90.00;;;;;;4346630;33;44905;-74
2021/08/27 01:37:51;;;;;;;;;;;16.70;90.00;;;;;;4346406;33;43691;-74
2021/08/27 01:40:20;;;;;;;;;;;16.70;90.00;;;;;;4346314;33;20370;-74
2021/08/27 01:42:51;;;;;;;;;;;16.70;90.00;;;;;;4346794;33;43282;-75
2021/08/27 01:45:19;;;;;;;;;;;16.70;90.00;;;;;;4346331;33;44200;-74
2021/08/27 01:47:49;;;;;;;;;;;16.60;90.00;;;;;;4345265;33;43473;-74
2021/08/27 01:50:21;;;;;;;;;;;16.60;90.00;;;;;;4346420;33;43287;-74
2021/08/27 01:52:49;;;;;;;;;;;16.60;90.00;;;;;;4346827;33;42558;-75
2021/08/27 01:55:16;;;;;;;;;;;16.60;90.00;;;;;;4346693;33;43410;-77
2021/08/27 01:57:43;;;;;;;;;;;16.60;90.00;;;;;;4333412;33;43715;-75
2021/08/27 02:00:11;;;;;;;;;;;16.60;90.00;;;;;;4345094;33;43281;-75
2021/08/27 02:02:38;;;;;;;;;;;16.60;90.00;;;;;;4346267;33;43129;-74
2021/08/27 02:05:07;;;;;;;;;;;16.50;89.90;;;;;;4346652;33;43490;-74
2021/08/27 02:07:34;;;;;;;;;;;16.50;89.90;;;;;;4346138;33;43269;-74
2021/08/27 02:10:07;;;;;;;;;;;16.50;89.80;;;;;;4333436;33;44224;-74
2021/08/27 02:12:35;;;;;;;;;;;16.50;89.80;;;;;;4332879;33;43759;-74
2021/08/27 02:15:05;;;;;;;;;;;16.50;89.70;;;;;;4346154;33;43103;-74
2021/08/27 02:17:32;;;;;;;;;;;16.50;89.80;;;;;;4346505;33;43923;-74
2021/08/27 02:20:02;;;;;;;;;;;16.40;89.70;;;;;;4346021;33;43258;-75
2021/08/27 02:22:31;;;;;;;;;;;16.50;89.80;;;;;;4346122;33;42490;-74
2021/08/27 02:25:13;;;;;;;;;;;16.40;89.60;;;;;;4346219;33;43179;-74
2021/08/27 02:27:41;;;;;;;;;;;16.40;89.70;;;;;;4332596;33;43914;-74
2021/08/27 02:30:08;;;;;;;;;;;16.40;89.50;;;;;;4344956;33;43855;-74
2021/08/27 02:32:36;;;;;;;;;;;16.40;89.50;;;;;;4345804;33;43192;-74
2021/08/27 02:35:07;;;;;;;;;;;16.40;89.60;;;;;;4346135;33;43923;-74
2021/08/27 02:37:38;;;;;;;;;;;16.30;89.70;;;;;;4346177;33;44199;-74
2021/08/27 02:40:05;;;;;;;;;;;16.30;89.70;;;;;;4345511;33;44187;-74
2021/08/27 02:42:33;;;;;;;;;;;16.30;89.70;;;;;;4345549;33;43636;-75
2021/08/27 02:45:00;;;;;;;;;;;16.30;89.70;;;;;;4344653;33;43828;-75
2021/08/27 02:47:30;;;;;;;;;;;16.30;89.70;;;;;;4345926;33;42852;-74
2021/08/27 02:49:57;;;;;;;;;;;16.30;89.90;;;;;;4345428;33;43288;-74
2021/08/27 02:52:27;;;;;;;;;;;16.30;89.80;;;;;;4345419;33;43654;-74
2021/08/27 02:54:54;;;;;;;;;;;16.30;89.70;;;;;;4345360;33;43486;-74
2021/08/27 02:57:28;;;;;;;;;;;16.30;89.70;;;;;;4345879;33;44496;-74
2021/08/27 03:00:00;;;;;;;;;;;16.30;89.80;;;;;;4345351;33;43602;-74
2021/08/27 03:02:27;;;;;;;;;;;16.20;89.60;;;;;;4345361;33;43235;-75
2021/08/27 03:05:05;;;;;;;;;;;16.20;89.70;;;;;;4345457;33;43177;-75
2021/08/27 03:07:35;;;;;;;;;;;16.20;89.60;;;;;;4345874;33;43064;-75
2021/08/27 03:10:05;;;;;;;;;;;16.20;89.60;;;;;;4331899;33;43298;-76
2021/08/27 03:12:52;;;;;;;;;;;16.20;89.60;;;;;;4333596;33;19993;-76
2021/08/27 03:15:31;;;;;;;;;;;16.20;89.50;;;;;;4345212;33;44211;-76
2021/08/27 03:18:02;;;;;;;;;;;16.10;89.50;;;;;;4331939;33;43583;-76
2021/08/27 03:20:38;;;;;;;;;;;16.10;89.40;;;;;;4345450;33;44325;-76
2021/08/27 03:23:10;;;;;;;;;;;16.10;89.50;;;;;;4345457;33;42517;-76
2021/08/27 03:25:39;;;;;;;;;;;16.10;89.60;;;;;;4345060;33;42120;-76
2021/08/27 03:28:08;;;;;;;;;;;16.10;89.60;;;;;;4345180;33;43268;-76
2021/08/27 03:30:35;;;;;;;;;;;16.00;89.70;;;;;;4345080;33;44251;-76
2021/08/27 03:33:06;;;;;;;;;;;16.00;89.80;;;;;;4331204;33;43721;-76
2021/08/27 03:35:36;;;;;;;;;;;16.00;89.80;;;;;;4332260;33;43255;-76
2021/08/27 03:38:10;;;;;;;;;;;16.00;89.80;;;;;;4332032;33;43804;-76
2021/08/27 03:40:37;;;;;;;;;;;16.00;89.90;;;;;;4345059;33;42822;-76
2021/08/27 03:43:05;;;;;;;;;;;16.00;89.70;;;;;;4332657;33;20001;-76
2021/08/27 03:45:32;;;;;;;;;;;16.00;89.80;;;;;;4345369;33;44287;-76
2021/08/27 03:48:02;;;;;;;;;;;16.00;89.80;;;;;;4331718;33;43431;-75
2021/08/27 03:50:29;;;;;;;;;;;16.00;89.90;;;;;;4344804;33;42870;-76
2021/08/27 03:52:57;;;;;;;;;;;16.00;89.80;;;;;;4343780;33;43606;-77
2021/08/27 03:55:28;;;;;;;;;;;16.00;89.80;;;;;;4344994;33;42346;-75
2021/08/27 03:57:55;;;;;;;;;;;16.00;89.80;;;;;;4345236;33;43881;-76
2021/08/27 04:00:42;;;;;;;;;;;15.90;89.60;;;;;;4345397;33;42660;-76
2021/08/27 04:03:09;;;;;;;;;;;15.90;89.90;;;;;;4344679;33;43676;-76
2021/08/27 04:05:36;;;;;;;;;;;15.90;89.80;;;;;;4344726;33;43950;-76
2021/08/27 04:08:06;;;;;;;;;;;15.90;89.90;;;;;;4331531;33;42846;-76
2021/08/27 04:10:35;;;;;;;;;;;15.90;89.80;;;;;;4344643;33;43684;-76
2021/08/27 04:13:02;;;;;;;;;;;15.90;89.30;;;;;;4331862;33;43186;-76
2021/08/27 04:15:29;;;;;;;;;;;15.90;89.40;;;;;;4345169;33;43749;-76
2021/08/27 04:17:56;;;;;;;;;;;15.80;89.30;;;;;;4345060;33;43262;-76
2021/08/27 04:20:23;;;;;;;;;;;15.80;89.40;;;;;;4344757;33;43052;-76
2021/08/27 04:22:53;;;;;;;;;;;15.80;89.50;;;;;;4344940;33;43428;-76
2021/08/27 04:25:22;;;;;;;;;;;15.80;89.70;;;;;;4344895;33;43089;-76
2021/08/27 04:27:55;;;;;;;;;;;15.80;89.80;;;;;;4344963;33;43285;-76
2021/08/27 04:30:22;;;;;;;;;;;15.80;89.80;;;;;;4345001;33;43553;-76
2021/08/27 04:32:49;;;;;;;;;;;15.80;89.90;;;;;;4344661;33;42895;-75
2021/08/27 04:35:20;;;;;;;;;;;15.80;89.80;;;;;;4345120;33;43635;-75
2021/08/27 04:37:50;;;;;;;;;;;15.80;89.80;;;;;;4345076;33;43744;-75
2021/08/27 04:40:17;;;;;;;;;;;15.80;89.90;;;;;;4343295;33;42538;-75
2021/08/27 04:42:44;;;;;;;;;;;15.80;89.90;;;;;;4331556;33;43345;-76
2021/08/27 04:45:15;;;;;;;;;;;15.80;89.80;;;;;;4332983;33;42774;-76
2021/08/27 04:47:42;;;;;;;;;;;15.80;89.70;;;;;;4333963;33;43415;-76
2021/08/27 04:50:13;;;;;;;;;;;15.80;89.60;;;;;;4347141;33;42724;-76
2021/08/27 04:52:46;;;;;;;;;;;15.70;89.50;;;;;;4347475;33;43104;-75
2021/08/27 04:55:13;;;;;;;;;;;15.70;89.40;;;;;;4334296;33;44395;-75
2021/08/27 04:57:43;;;;;;;;;;;15.70;89.40;;;;;;4346387;33;43016;-76
2021/08/27 05:00:13;;;;;;;;;;;15.70;89.30;;;;;;4347011;33;42905;-75
2021/08/27 05:02:40;;;;;;;;;;;15.60;89.30;;;;;;4347024;33;42875;-75
2021/08/27 05:05:08;;;;;;;;;;;15.60;89.40;;;;;;4347435;33;43275;-76
2021/08/27 05:07:35;;;;;;;;;;;15.60;89.30;;;;;;4347242;33;43661;-76
2021/08/27 05:10:03;;;;;;;;;;;15.60;89.30;;;;;;4334054;33;42409;-75
2021/08/27 05:12:30;;;;;;;;;;;15.60;89.20;;;;;;4346990;33;44225;-76
2021/08/27 05:14:57;;;;;;;;;;;15.60;89.30;;;;;;4346899;33;43477;-76
2021/08/27 05:17:30;;;;;;;;;;;15.60;89.30;;;;;;4347266;33;43791;-75
2021/08/27 05:19:57;;;;;;;;;;;15.50;89.30;;;;;;4347171;33;43167;-75
2021/08/27 05:22:24;;;;;;;;;;;15.60;89.50;;;;;;4333824;33;42483;-75
2021/08/27 05:24:55;;;;;;;;;;;15.50;89.50;;;;;;4334327;33;44288;-75
2021/08/27 05:27:25;;;;;;;;;;;15.50;89.60;;;;;;4345687;33;43258;-75
2021/08/27 05:29:55;;;;;;;;;;;15.50;89.70;;;;;;4346977;33;43322;-75
2021/08/27 05:32:25;;;;;;;;;;;15.50;89.70;;;;;;4346589;33;44339;-75
2021/08/27 05:34:52;;;;;;;;;;;15.50;89.80;;;;;;4345920;33;42845;-75
2021/08/27 05:37:19;;;;;;;;;;;15.50;89.70;;;;;;4346493;33;42559;-75
2021/08/27 05:39:50;;;;;;;;;;;15.50;89.80;;;;;;4333250;33;43373;-75
2021/08/27 05:42:23;;;;;;;;;;;15.50;89.90;;;;;;4346468;33;43080;-75
2021/08/27 05:44:53;;;;;;;;;;;15.50;90.00;;;;;;4346414;33;19997;-75
2021/08/27 05:47:34;;;;;;;;;;;15.50;89.90;;;;;;4335171;33;44275;-76
2021/08/27 05:50:07;;;;;;;;;;;15.50;90.00;;;;;;4346267;33;42856;-75
2021/08/27 05:52:34;;;;;;;;;;;15.50;90.00;;;;;;4346861;33;43270;-75
2021/08/27 05:55:03;;;;;;;;;;;15.40;90.00;;;;;;4346222;33;43914;-75
2021/08/27 05:57:30;;;;;;;;;;;15.40;90.10;;;;;;4345260;33;44049;-75
2021/08/27 05:59:57;;;;;;;;;;;15.40;90.10;;;;;;4344991;33;42668;-75
2021/08/27 06:02:27;;;;;;;;;;;15.40;90.10;;;;;;4346206;33;44045;-75
2021/08/27 06:04:59;;;;;;;;;;;15.40;90.10;;;;;;4346286;33;42784;-76
2021/08/27 06:07:26;;;;;;;;;;;15.40;90.20;;;;;;4346580;33;43759;-76
2021/08/27 06:09:59;;;;;;;;;;;15.40;90.20;;;;;;4333622;33;43101;-75
2021/08/27 06:12:26;;;;;;;;;;;15.40;90.30;;;;;;4333239;33;43022;-75
2021/08/27 06:14:53;;;;;;;;;;;15.40;90.30;;;;;;4347373;33;20002;-76
2021/08/27 06:17:23;;;;;;;;;;;15.40;90.40;;;;;;4346125;33;43323;-76
2021/08/27 06:19:50;;;;;;;;;;;15.40;90.50;;;;;;4346054;33;43696;-75
2021/08/27 06:22:17;;;;;;;;;;;15.40;90.50;;;;;;4332607;33;42558;-75
2021/08/27 06:24:45;;;;;;;;;;;15.40;90.50;;;;;;4332939;33;42335;-75
2021/08/27 06:27:12;;;;;;;;;;;15.40;90.60;;;;;;4345823;33;43579;-75
2021/08/27 06:29:42;;;;;;;;;;;15.40;90.60;;;;;;4345950;33;43898;-76
2021/08/27 06:32:09;;;;;;;;;;;15.40;90.70;;;;;;4346046;33;43566;-76
2021/08/27 06:34:39;;;;;;;;;;;15.40;90.80;;;;;;4346179;33;43196;-76
2021/08/27 06:37:09;;;;;;;;;;;15.40;90.80;;;;;;4344548;33;43479;-75
2021/08/27 06:39:36;;;;;;;;;;;15.40;90.90;;;;;;4346023;33;42487;-76
2021/08/27 06:42:08;;;;;;;;;;;15.40;91.00;;;;;;4344578;33;42637;-76
2021/08/27 06:44:35;;;;;;;;;;;15.40;91.00;;;;;;4332915;33;44171;-76
2021/08/27 06:47:05;;;;;;;;;;;15.40;91.10;;;;;;4332473;33;43897;-76
2021/08/27 06:49:35;;;;;;;;;;;15.50;91.20;;;;;;4345694;33;43960;-76
2021/08/27 06:52:05;;;;;;;;;;;15.50;91.30;;;;;;4345468;33;43873;-76
2021/08/27 06:54:32;;;;;;;;;;;15.50;91.30;;;;;;4345927;33;43910;-76
2021/08/27 06:56:59;;;;;;;;;;;15.50;91.40;;;;;;4346046;33;43971;-75
2021/08/27 06:59:26;;;;;;;;;;;15.50;91.40;;;;;;4345381;33;43882;-76
2021/08/27 07:02:02;;;;;;;;;;;15.50;91.50;;;;;;4344070;33;44180;-76
2021/08/27 07:04:30;;;;;;;;;;;15.50;91.50;;;;;;4345884;33;43579;-76
2021/08/27 07:06:58;;;;;;;;;;;15.50;91.60;;;;;;4332492;33;42809;-76
2021/08/27 07:09:30;;;;;;;;;;;15.50;91.60;;;;;;4343909;33;43189;-76
2021/08/27 07:11:57;;;;;;;;;;;15.50;91.70;;;;;;4332385;33;44946;-76
2021/08/27 07:14:27;;;;;;;;;;;15.50;91.70;;;;;;4345389;33;43673;-76
2021/08/27 07:16:57;;;;;;;;;;;15.50;91.80;;;;;;4345532;33;43895;-77
2021/08/27 07:19:25;;;;;;;;;;;15.50;91.90;;;;;;4345792;33;44225;-76
2021/08/27 07:21:52;;;;;;;;;;;15.60;91.90;;;;;;4345165;33;44187;-76
2021/08/27 07:24:20;;;;;;;;;;;15.60;92.00;;;;;;4345559;33;43265;-76
2021/08/27 07:26:47;;;;;;;;;;;15.60;92.00;;;;;;4345567;33;43245;-75
2021/08/27 07:29:14;;;;;;;;;;;15.60;92.10;;;;;;4344958;33;43861;-76
2021/08/27 07:31:41;;;;;;;;;;;15.60;92.10;;;;;;4344969;33;44188;-76
2021/08/27 07:34:11;;;;;;;;;;;15.60;92.20;;;;;;4345367;33;44194;-76
2021/08/27 07:36:38;;;;;;;;;;;15.60;92.20;;;;;;4345608;33;43855;-76
2021/08/27 07:39:05;;;;;;;;;;;15.60;92.20;;;;;;4345385;33;43097;-76
2021/08/27 07:41:35;;;;;;;;;;;15.60;92.20;;;;;;4345216;33;43910;-76
2021/08/27 07:44:03;;;;;;;;;;;15.70;92.30;;;;;;4343888;33;44037;-76
2021/08/27 07:46:30;;;;;;;;;;;15.70;92.30;;;;;;4332900;33;20005;-75
2021/08/27 07:49:00;;;;;;;;;;;15.70;92.30;;;;;;4345233;33;42316;-76
2021/08/27 07:51:27;;;;;;;;;;;15.70;92.40;;;;;;4344889;33;44933;-76
2021/08/27 07:53:54;;;;;;;;;;;15.70;92.50;;;;;;4345224;33;45304;-75
2021/08/27 07:56:21;;;;;;;;;;;15.70;92.50;;;;;;4344775;33;43744;-76
2021/08/27 07:58:48;;;;;;;;;;;15.70;92.50;;;;;;4344981;33;43762;-76
2021/08/27 08:01:15;;;;;;;;;;;15.70;92.50;;;;;;4344511;33;42310;-76
2021/08/27 08:03:45;;;;;;;;;;;15.70;92.50;;;;;;4345252;33;43278;-75
2021/08/27 08:06:13;;;;;;;;;;;15.70;92.60;;;;;;4345524;33;43957;-76
2021/08/27 08:08:43;;;;;;;;;;;15.70;92.50;;;;;;4332030;33;43690;-76
2021/08/27 08:11:13;;;;;;;;;;;15.70;92.60;;;;;;4331910;33;43906;-75
2021/08/27 08:13:40;;;;;;;;;;;15.80;92.60;;;;;;4344639;33;43938;-76
2021/08/27 08:16:08;;;;;;;;;;;15.80;92.70;;;;;;4345118;33;44271;-76
2021/08/27 08:18:37;;;;;;;;;;;15.80;92.70;;;;;;4344628;33;42933;-75
2021/08/27 08:21:08;;;;;;;;;;;15.80;92.70;;;;;;4347998;33;43884;-75
2021/08/27 08:23:35;;;;;;;;;;;15.80;92.70;;;;;;4347571;33;41847;-76
2021/08/27 08:26:04;;;;;;;;;;;15.80;92.70;;;;;;4347881;33;43606;-76
2021/08/27 08:28:32;;;;;;;;;;;15.80;92.70;;;;;;4347442;33;43276;-76
2021/08/27 08:30:59;;;;;;;;;;;15.90;92.70;;;;;;4334294;33;43043;-77
2021/08/27 08:33:27;;;;;;;;;;;15.90;92.80;;;;;;4347595;33;43334;-76
2021/08/27 08:35:54;;;;;;;;;;;15.90;92.70;;;;;;4347556;33;43479;-76
2021/08/27 08:38:23;;;;;;;;;;;15.90;92.70;;;;;;4334087;33;42432;-76
2021/08/27 08:40:53;;;;;;;;;;;15.90;92.80;;;;;;4346527;33;43612;-76
2021/08/27 08:43:20;;;;;;;;;;;15.90;92.80;;;;;;4347624;33;44904;-75
2021/08/27 08:45:48;;;;;;;;;;;15.90;92.80;;;;;;4334101;33;43943;-76
2021/08/27 08:48:19;;;;;;;;;;;15.90;92.80;;;;;;4334424;33;43787;-76
2021/08/27 08:50:46;;;;;;;;;;;15.90;92.80;;;;;;4347818;33;43022;-75
2021/08/27 08:53:14;;;;;;;;;;;15.90;92.80;;;;;;4347116;33;43493;-76
2021/08/27 08:55:41;;;;;;;;;;;16.00;92.80;;;;;;4333844;33;42112;-77
2021/08/27 08:58:08;;;;;;;;;;;16.00;92.80;;;;;;4347094;33;45748;-75
2021/08/27 09:00:38;;;;;;;;;;;16.00;92.80;;;;;;4347591;33;42837;-76
2021/08/27 09:03:05;;;;;;;;;;;16.00;92.80;;;;;;4343119;33;43857;-76
2021/08/27 09:05:38;;;;;;;;;;;16.00;92.90;;;;;;4331435;33;43011;-76
2021/08/27 09:08:08;;;;;;;;;;;16.00;92.90;;;;;;4332707;33;46100;-76
2021/08/27 09:10:42;;;;;;;;;;;16.00;92.90;;;;;;4331103;33;43494;-76
2021/08/27 09:13:10;;;;;;;;;;;16.00;92.90;;;;;;4343896;33;45862;-76
2021/08/27 09:15:39;;;;;;;;;;;16.10;92.90;;;;;;4332283;33;42914;-76
2021/08/27 09:18:10;;;;;;;;;;;16.10;92.90;;;;;;4331543;33;43393;-77
2021/08/27 09:20:38;;;;;;;;;;;16.10;92.80;;;;;;4332649;33;43471;-76
2021/08/27 09:23:07;;;;;;;;;;;16.10;92.80;;;;;;4332400;33;43755;-76
2021/08/27 09:25:36;;;;;;;;;;;16.10;92.80;;;;;;4332048;33;43775;-76
2021/08/27 09:28:08;;;;;;;;;;;16.10;92.80;;;;;;4332115;33;43450;-76
2021/08/27 09:30:50;;;;;;;;;;;16.10;92.80;;;;;;4332040;33;43716;-75
2021/08/27 09:33:23;;;;;;;;;;;16.10;92.80;;;;;;4332401;33;43097;-76
2021/08/27 09:35:57;;;;;;;;;;;16.10;92.80;;;;;;4343451;33;43598;-75
2021/08/27 09:38:26;;;;;;;;;;;16.10;92.80;;;;;;4331864;33;43631;-76
2021/08/27 09:41:02;;;;;;;;;;;16.20;92.80;;;;;;4332234;33;43111;-75
2021/08/27 09:43:30;;;;;;;;;;;16.20;92.80;;;;;;4332254;33;43892;-75
2021/08/27 09:46:03;;;;;;;;;;;16.20;92.80;;;;;;4343172;33;42732;-76
2021/08/27 09:48:39;;;;;;;;;;;16.20;92.80;;;;;;4333607;33;20040;-76
2021/08/27 09:51:09;;;;;;;;;;;16.20;92.80;;;;;;4343353;33;43261;-75
2021/08/27 09:53:45;;;;;;;;;;;16.20;92.80;;;;;;4331868;33;42735;-75
2021/08/27 09:56:15;;;;;;;;;;;16.20;92.70;;;;;;4332106;33;43915;-76
2021/08/27 09:58:53;;;;;;;;;;;16.30;92.70;;;;;;4330841;33;43314;-76
2021/08/27 10:01:21;;;;;;;;;;;16.30;92.70;;;;;;4333218;33;43691;-76
2021/08/27 10:04:02;;;;;;;;;;;16.30;92.70;;;;;;4346308;33;41985;-76
2021/08/27 10:06:32;;;;;;;;;;;16.30;92.70;;;;;;4346745;33;44231;-75
2021/08/27 10:09:00;;;;;;;;;;;16.30;93.10;;;;;;4346567;33;43868;-76
2021/08/27 10:11:27;;;;;;;;;;;16.30;92.70;;;;;;4346025;33;42852;-75
2021/08/27 10:13:57;;;;;;;;;;;16.30;92.70;;;;;;4346162;33;43474;-75
2021/08/27 10:16:24;;;;;;;;;;;16.30;92.70;;;;;;4332679;33;42721;-75
2021/08/27 10:18:51;;;;;;;;;;;16.30;92.70;;;;;;4347332;33;19997;-76
2021/08/27 10:21:18;;;;;;;;;;;16.30;92.70;;;;;;4346112;33;45126;-76
2021/08/27 10:23:45;;;;;;;;;;;16.30;92.70;;;;;;4332561;33;43480;-75
2021/08/27 10:26:17;;;;;;;;;;;16.30;92.70;;;;;;4332568;33;42963;-75
2021/08/27 10:28:45;;;;;;;;;;;16.30;92.70;;;;;;4345992;33;44464;-76
2021/08/27 10:31:12;;;;;;;;;;;16.30;92.70;;;;;;4345867;33;43584;-76
2021/08/27 10:33:42;;;;;;;;;;;16.30;92.70;;;;;;4346092;33;42748;-76
2021/08/27 10:36:10;;;;;;;;;;;16.30;92.70;;;;;;4332363;33;44242;-76
2021/08/27 10:38:42;;;;;;;;;;;16.30;92.70;;;;;;4332856;33;44815;-76
2021/08/27 10:41:13;;;;;;;;;;;16.40;92.70;;;;;;4332476;33;43673;-76
2021/08/27 10:44:07;;;;;;;;;;;16.40;92.70;;;;;;4346091;33;44273;-76
2021/08/27 10:46:51;;;;;;;;;;;16.40;92.70;;;;;;4345908;33;43282;-76
2021/08/27 10:49:22;;;;;;;;;;;16.40;92.70;;;;;;4346583;33;19997;-76
2021/08/27 10:51:51;;;;;;;;;;;16.40;92.70;;;;;;4332268;33;42463;-76
2021/08/27 10:54:18;;;;;;;;;;;16.40;92.70;;;;;;4345897;33;43901;-77
2021/08/27 10:56:49;;;;;;;;;;;16.40;92.60;;;;;;4345975;33;43473;-75
2021/08/27 10:59:18;;;;;;;;;;;16.40;93.00;;;;;;4345380;33;43475;-76
2021/08/27 11:01:45;;;;;;;;;;;16.40;92.60;;;;;;4345083;33;43676;-77
2021/08/27 11:04:16;;;;;;;;;;;16.40;92.60;;;;;;4344829;33;43051;-76
2021/08/27 11:06:55;;;;;;;;;;;16.40;92.70;;;;;;4345910;33;44103;-76
2021/08/27 11:09:27;;;;;;;;;;;16.40;92.60;;;;;;4331957;33;42970;-76
2021/08/27 11:12:13;;;;;;;;;;;16.40;92.60;;;;;;4344584;33;42659;-77
2021/08/27 11:14:41;;;;;;;;;;;16.40;92.70;;;;;;4345821;33;44259;-77
2021/08/27 11:17:09;;;;;;;;;;;16.40;92.70;;;;;;4345437;33;42517;-77
2021/08/27 11:19:43;;;;;;;;;;;16.50;92.70;;;;;;4346075;33;20376;-76
2021/08/27 11:22:10;;;;;;;;;;;16.40;92.70;;;;;;4344577;33;43490;-77
2021/08/27 11:24:39;;;;;;;;;;;16.40;92.70;;;;;;4345183;33;42580;-77
2021/08/27 11:27:07;;;;;;;;;;;16.40;92.70;;;;;;4345100;33;44872;-77
2021/08/27 11:29:34;;;;;;;;;;;16.40;92.70;;;;;;4345589;33;43716;-76
2021/08/27 11:32:27;;;;;;;;;;;16.50;93.10;;;;;;4344969;33;42634;-77
2021/08/27 11:34:56;;;;;;;;;;;16.40;92.80;;;;;;4344057;33;42862;-77
2021/08/27 11:37:24;;;;;;;;;;;16.50;92.80;;;;;;4344936;33;43504;-76
2021/08/27 11:39:52;;;;;;;;;;;16.50;92.80;;;;;;4344909;33;44189;-76
2021/08/27 11:42:19;;;;;;;;;;;16.50;92.80;;;;;;4344786;33;42579;-77
2021/08/27 11:45:06;;;;;;;;;;;16.50;92.80;;;;;;4345338;33;42914;-75
2021/08/27 11:47:46;;;;;;;;;;;16.50;92.80;;;;;;4331821;33;42495;-76
2021/08/27 11:50:19;;;;;;;;;;;16.50;92.80;;;;;;4345367;33;44910;-76
2021/08/27 11:52:48;;;;;;;;;;;16.50;92.70;;;;;;4332068;33;43915;-76
2021/08/27 11:55:16;;;;;;;;;;;16.60;92.80;;;;;;4344393;33;43701;-75
2021/08/27 11:57:54;;;;;;;;;;;16.50;92.70;;;;;;4331852;33;45789;-75
2021/08/27 12:00:22;;;;;;;;;;;16.60;92.80;;;;;;4344856;33;45014;-75
2021/08/27 12:02:51;;;;;;;;;;;16.60;92.80;;;;;;4331709;33;43490;-75
2021/08/27 12:05:22;;;;;;;;;;;16.60;92.70;;;;;;4331794;33;43855;-75
2021/08/27 12:07:50;;;;;;;;;;;16.60;92.70;;;;;;4331937;33;43594;-76
2021/08/27 12:10:17;;;;;;;;;;;16.70;92.70;;;;;;4344751;33;42134;-76
2021/08/27 12:12:48;;;;;;;;;;;16.60;92.70;;;;;;4344745;33;43527;-75
2021/08/27 12:15:17;;;;;;;;;;;16.70;92.70;;;;;;4345201;33;43962;-75
2021/08/27 12:17:52;;;;;;;;;;;16.70;92.70;;;;;;4343799;33;43475;-76
2021/08/27 12:20:20;;;;;;;;;;;16.70;92.70;;;;;;4345747;33;19998;-75
2021/08/27 12:23:12;;;;;;;;;;;16.70;92.60;;;;;;4344460;33;43515;-76
2021/08/27 12:25:41;;;;;;;;;;;16.70;92.60;;;;;;4344993;33;43085;-76
2021/08/27 12:28:32;;;;;;;;;;;16.70;92.60;;;;;;4344186;33;45609;-76
2021/08/27 12:30:59;;;;;;;;;;;16.80;92.60;;;;;;4345030;33;42649;-76
2021/08/27 12:33:28;;;;;;;;;;;16.80;92.60;;;;;;4331460;33;43439;-75
2021/08/27 12:35:55;;;;;;;;;;;16.80;92.50;;;;;;4344674;33;42855;-76
2021/08/27 12:38:22;;;;;;;;;;;16.80;92.50;;;;;;4344785;33;42831;-77
2021/08/27 12:40:50;;;;;;;;;;;16.80;92.50;;;;;;4344795;33;43945;-75
2021/08/27 12:43:24;;;;;;;;;;;16.90;92.50;;;;;;4344430;33;42731;-75
2021/08/27 12:45:53;;;;;;;;;;;16.90;92.50;;;;;;4344842;33;43698;-76
2021/08/27 12:48:21;;;;;;;;;;;17.00;92.50;;;;;;4331242;33;43691;-76
2021/08/27 12:50:48;;;;;;;;;;;16.90;92.40;;;;;;4344579;33;20374;-75
2021/08/27 12:53:26;;;;;;;;;;;17.00;92.40;;;;;;4344425;33;43492;-77
2021/08/27 12:56:11;;;;;;;;;;;17.00;92.30;;;;;;4345210;33;43215;-77
2021/08/27 12:58:40;;;;;;;;;;;17.00;92.30;;;;;;4345349;33;42874;-77
2021/08/27 13:01:20;;;;;;;;;;;17.00;92.30;;;;;;4344876;33;44294;-76
2021/08/27 13:03:49;;;;;;;;;;;17.00;92.30;;;;;;4343701;33;43419;-75
2021/08/27 13:06:33;;;;;;;;;;;17.00;92.20;;;;;;4344659;33;44353;-75
2021/08/27 13:09:02;;;;;;;;;;;17.10;92.30;;;;;;4346927;33;42234;-75
2021/08/27 13:11:49;;;;;;;;;;;17.10;92.30;;;;;;4347491;33;43275;-76
2021/08/27 13:14:24;;;;;;;;;;;17.10;92.20;;;;;;4347455;33;43938;-75
2021/08/27 13:16:54;;;;;;;;;;;17.10;92.20;;;;;;4347415;33;43557;-76
2021/08/27 13:19:22;;;;;;;;;;;17.20;92.20;;;;;;4333946;33;43902;-75
2021/08/27 13:21:53;;;;;;;;;;;17.20;92.20;;;;;;4346772;33;20422;-77
2021/08/27 13:24:20;;;;;;;;;;;17.20;92.20;;;;;;4334036;33;43263;-75
2021/08/27 13:26:54;;;;;;;;;;;17.30;92.20;;;;;;4347055;33;44346;-75
2021/08/27 13:29:22;;;;;;;;;;;17.30;92.10;;;;;;4347209;33;45735;-75
2021/08/27 13:31:54;;;;;;;;;;;17.40;92.10;;;;;;4347148;33;44528;-76
2021/08/27 13:34:24;;;;;;;;;;;17.40;92.10;;;;;;4345578;33;42898;-75
2021/08/27 13:36:51;;;;;;;;;;;17.40;92.10;;;;;;4346551;33;43895;-75
2021/08/27 13:39:18;;;;;;;;;;;17.50;92.00;;;;;;4346816;33;42490;-75
2021/08/27 13:41:45;;;;;;;;;;;17.50;92.00;;;;;;4346527;33;42490;-76
2021/08/27 13:44:12;;;;;;;;;;;17.60;91.90;;;;;;4346791;33;45761;-76
2021/08/27 13:46:40;;;;;;;;;;;17.60;91.90;;;;;;4346578;33;43162;-75
2021/08/27 13:49:07;;;;;;;;;;;17.60;91.90;;;;;;4346879;33;44010;-75
2021/08/27 13:51:37;;;;;;;;;;;17.60;91.80;;;;;;4346999;33;43051;-77
2021/08/27 13:54:05;;;;;;;;;;;17.60;91.80;;;;;;4346652;33;43081;-75
2021/08/27 13:56:32;;;;;;;;;;;17.50;91.70;;;;;;4346692;33;42466;-75
2021/08/27 13:59:01;;;;;;;;;;;17.60;91.70;;;;;;4346662;33;43626;-76
2021/08/27 14:01:29;;;;;;;;;;;17.50;91.70;;;;;;4333233;33;43745;-75
2021/08/27 14:03:57;;;;;;;;;;;17.50;91.70;;;;;;4346662;33;44931;-76
2021/08/27 14:06:24;;;;;;;;;;;17.60;91.70;;;;;;4346175;33;43630;-76
2021/08/27 14:08:51;;;;;;;;;;;17.50;91.70;;;;;;4346111;33;43482;-76
2021/08/27 14:11:21;;;;;;;;;;;17.50;91.60;;;;;;4346607;33;42690;-76
2021/08/27 14:13:52;;;;;;;;;;;17.50;91.50;;;;;;4346559;33;43856;-76
2021/08/27 14:16:22;;;;;;;;;;;17.50;91.50;;;;;;4346475;33;44014;-76
2021/08/27 14:18:49;;;;;;;;;;;17.50;91.50;;;;;;4345673;33;43910;-76
2021/08/27 14:21:16;;;;;;;;;;;17.50;91.50;;;;;;4333201;33;43989;-76
2021/08/27 14:23:46;;;;;;;;;;;17.50;91.50;;;;;;4347475;33;20001;-76
2021/08/27 14:26:13;;;;;;;;;;;17.40;91.50;;;;;;4333051;33;43866;-76
2021/08/27 14:28:40;;;;;;;;;;;17.40;91.50;;;;;;4346170;33;42143;-76
2021/08/27 14:31:09;;;;;;;;;;;17.40;91.60;;;;;;4332468;33;43571;-76